createdAt,value
2019-04-06T00:00:49.319Z,10.95
2019-04-06T00:03:18.711Z,10.94
2019-04-06T00:05:48.296Z,10.90
2019-04-06T00:08:18.973Z,10.90
2019-04-06T00:10:48.675Z,10.90
2019-04-06T00:13:18.079Z,10.83
2019-04-06T00:15:47.616Z,10.80
2019-04-06T00:18:17.035Z,10.85
2019-04-06T00:20:46.455Z,10.89
2019-04-06T00:23:16.010Z,10.86
2019-04-06T00:25:45.422Z,10.80
2019-04-06T00:28:14.869Z,10.78
2019-04-06T00:30:57.623Z,10.74
2019-04-06T00:33:27.448Z,10.66
2019-04-06T00:35:56.863Z,10.58
2019-04-06T00:38:26.562Z,10.52
2019-04-06T00:40:56.000Z,10.48
2019-04-06T00:43:25.846Z,10.41
2019-04-06T00:45:55.431Z,10.38
2019-04-06T00:48:24.835Z,10.32
2019-04-06T00:50:54.305Z,10.37
2019-04-06T00:53:23.859Z,10.26
2019-04-06T00:55:55.754Z,10.27
2019-04-06T00:58:24.460Z,10.15
2019-04-06T01:00:54.097Z,10.16
2019-04-06T01:03:23.610Z,10.11
2019-04-06T01:05:53.036Z,10.07
2019-04-06T01:08:22.604Z,10.04
2019-04-06T01:10:52.129Z,10.00
2019-04-06T01:13:21.638Z,9.96
2019-04-06T01:15:51.292Z,9.99
2019-04-06T01:18:20.766Z,9.96
2019-04-06T01:20:50.266Z,9.98
2019-04-06T01:23:19.980Z,9.82
2019-04-06T01:25:49.418Z,9.72
2019-04-06T01:28:18.917Z,9.76
2019-04-06T01:30:48.692Z,9.78
2019-04-06T01:33:18.283Z,9.73
2019-04-06T01:35:48.713Z,9.71
2019-04-06T01:38:21.550Z,9.80
2019-04-06T01:40:52.172Z,9.75
2019-04-06T01:43:21.628Z,9.78
2019-04-06T01:45:52.688Z,9.76
2019-04-06T01:48:22.119Z,9.71
2019-04-06T01:50:53.373Z,9.72
2019-04-06T01:53:23.044Z,9.69
2019-04-06T01:55:52.420Z,9.67
2019-04-06T01:58:21.822Z,9.67
2019-04-06T02:01:04.976Z,9.61
2019-04-06T02:03:34.371Z,9.60
2019-04-06T02:06:04.229Z,9.60
2019-04-06T02:08:34.051Z,9.67
2019-04-06T02:11:03.467Z,9.60
2019-04-06T02:13:33.916Z,9.68
2019-04-06T02:16:03.352Z,9.68
2019-04-06T02:18:32.758Z,9.69
2019-04-06T02:21:02.186Z,9.72
2019-04-06T02:23:31.720Z,9.65
2019-04-06T02:26:02.383Z,9.63
2019-04-06T02:28:32.882Z,9.67
2019-04-06T02:31:15.993Z,9.65
2019-04-06T02:34:16.537Z,9.68
2019-04-06T02:37:17.093Z,9.61
2019-04-06T02:39:56.189Z,9.54
2019-04-06T02:42:35.313Z,9.62
2019-04-06T02:45:05.053Z,9.65
2019-04-06T02:47:34.683Z,9.65
2019-04-06T02:50:05.418Z,9.68
2019-04-06T02:52:34.835Z,9.70
2019-04-06T02:55:04.338Z,9.71
2019-04-06T02:57:33.906Z,9.70
2019-04-06T03:00:03.329Z,9.71
2019-04-06T03:02:53.020Z,9.72
2019-04-06T03:05:22.475Z,9.70
2019-04-06T03:07:51.902Z,9.66
2019-04-06T03:10:21.572Z,9.72
2019-04-06T03:12:50.965Z,9.75
2019-04-06T03:15:20.364Z,9.77
2019-04-06T03:17:50.886Z,9.79
2019-04-06T03:20:20.472Z,9.78
2019-04-06T03:22:50.017Z,9.74
2019-04-06T03:25:21.470Z,9.83
2019-04-06T03:27:53.983Z,9.82
2019-04-06T03:30:23.655Z,9.81
2019-04-06T03:32:53.215Z,9.87
2019-04-06T03:35:22.645Z,9.91
2019-04-06T03:37:52.055Z,9.89
2019-04-06T03:40:21.493Z,9.90
2019-04-06T03:42:51.076Z,9.85
2019-04-06T03:45:20.485Z,9.89
2019-04-06T03:47:50.034Z,9.91
2019-04-06T03:50:19.469Z,9.91
2019-04-06T03:52:48.897Z,9.92
2019-04-06T03:55:19.220Z,9.91
2019-04-06T03:57:48.705Z,9.86
2019-04-06T04:00:18.484Z,9.81
2019-04-06T04:02:48.005Z,9.84
2019-04-06T04:05:17.391Z,9.84
2019-04-06T04:07:46.798Z,9.75
2019-04-06T04:10:31.515Z,9.70
2019-04-06T04:13:01.241Z,9.72
2019-04-06T04:15:30.665Z,9.68
2019-04-06T04:18:00.253Z,9.62
2019-04-06T04:20:29.645Z,9.57
2019-04-06T04:22:59.138Z,9.57
2019-04-06T04:25:28.630Z,9.56
2019-04-06T04:27:58.456Z,9.50
2019-04-06T04:30:33.410Z,9.49
2019-04-06T04:33:00.562Z,9.44
2019-04-06T04:35:30.282Z,9.38
2019-04-06T04:37:59.765Z,9.35
2019-04-06T04:40:29.412Z,9.35
2019-04-06T04:42:58.867Z,9.36
2019-04-06T04:45:28.326Z,9.32
2019-04-06T04:47:57.931Z,9.24
2019-04-06T04:50:27.522Z,9.23
2019-04-06T04:52:57.068Z,9.22
2019-04-06T04:55:26.621Z,9.25
2019-04-06T04:57:56.012Z,9.24
2019-04-06T05:00:25.820Z,9.21
2019-04-06T05:02:56.877Z,9.24
2019-04-06T05:05:27.381Z,9.23
2019-04-06T05:07:56.823Z,9.24
2019-04-06T05:10:26.368Z,9.22
2019-04-06T05:12:55.936Z,9.21
2019-04-06T05:15:52.716Z,9.23
2019-04-06T05:18:22.134Z,9.24
2019-04-06T05:20:51.554Z,9.33
2019-04-06T05:23:21.099Z,9.33
2019-04-06T05:25:50.507Z,9.32
2019-04-06T05:28:19.937Z,9.36
2019-04-06T05:30:49.665Z,9.42
2019-04-06T05:33:19.081Z,9.42
2019-04-06T05:35:48.480Z,9.50
2019-04-06T05:38:17.938Z,9.52
2019-04-06T05:40:47.341Z,9.52
2019-04-06T05:43:16.728Z,9.60
2019-04-06T05:45:46.179Z,9.64
2019-04-06T05:48:18.779Z,9.73
2019-04-06T05:50:48.316Z,9.73
2019-04-06T05:53:18.109Z,9.81
2019-04-06T05:55:47.511Z,9.96
2019-04-06T05:58:16.907Z,10.05
2019-04-06T06:00:46.449Z,10.11
2019-04-06T06:03:16.111Z,10.19
2019-04-06T06:05:45.540Z,10.30
2019-04-06T06:08:15.320Z,10.38
2019-04-06T06:10:47.449Z,10.52
2019-04-06T06:13:16.825Z,10.63
2019-04-06T06:15:46.486Z,10.72
2019-04-06T06:18:25.604Z,10.72
2019-04-06T06:20:48.351Z,10.86
2019-04-06T06:23:18.356Z,11.06
2019-04-06T06:25:48.047Z,11.10
2019-04-06T06:28:17.658Z,11.21
2019-04-06T06:30:47.195Z,11.29
2019-04-06T06:33:16.777Z,11.35
2019-04-06T06:35:46.366Z,11.64
2019-04-06T06:38:15.990Z,11.57
2019-04-06T06:40:45.593Z,11.66
2019-04-06T06:43:15.227Z,11.72
2019-04-06T06:45:48.335Z,11.77
2019-04-06T06:48:17.741Z,11.83
2019-04-06T06:50:47.392Z,11.87
2019-04-06T06:53:16.970Z,11.75
2019-04-06T06:58:39.007Z,11.88
2019-04-06T07:01:09.552Z,12.02
2019-04-06T07:03:39.971Z,12.13
2019-04-06T07:06:09.827Z,12.34
2019-04-06T07:08:39.680Z,12.47
2019-04-06T07:11:09.207Z,12.60
2019-04-06T07:13:38.773Z,12.81
2019-04-06T07:16:08.180Z,12.84
2019-04-06T07:18:37.596Z,12.81
2019-04-06T07:21:07.183Z,12.98
2019-04-06T07:23:36.688Z,13.08
2019-04-06T07:26:06.238Z,13.21
2019-04-06T07:28:38.639Z,13.36
2019-04-06T07:31:07.111Z,13.44
2019-04-06T07:33:36.684Z,13.51
2019-04-06T07:36:06.251Z,13.63
2019-04-06T07:38:37.883Z,13.64
2019-04-06T07:41:06.902Z,13.71
2019-04-06T07:43:36.456Z,13.84
2019-04-06T07:46:06.122Z,14.15
2019-04-06T07:48:35.569Z,14.21
2019-04-06T07:51:09.131Z,14.43
2019-04-06T07:53:38.540Z,14.38
2019-04-06T07:56:08.154Z,14.52
2019-04-06T07:58:48.051Z,14.66
2019-04-06T08:01:08.906Z,14.81
2019-04-06T08:03:38.413Z,15.42
2019-04-06T08:06:08.231Z,15.95
2019-04-06T08:08:39.923Z,16.51
2019-04-06T08:11:09.550Z,16.53
2019-04-06T08:13:39.555Z,16.47
2019-04-06T08:16:08.977Z,16.23
2019-04-06T08:18:38.394Z,16.52
2019-04-06T08:21:08.052Z,16.45
2019-04-06T08:23:37.545Z,16.23
2019-04-06T08:26:06.958Z,16.05
2019-04-06T08:28:36.458Z,16.06
2019-04-06T08:31:05.862Z,16.13
2019-04-06T08:33:35.391Z,16.37
2019-04-06T08:36:05.196Z,16.51
2019-04-06T08:38:34.722Z,16.35
2019-04-06T08:41:04.631Z,16.21
2019-04-06T08:43:34.138Z,16.08
2019-04-06T08:46:03.588Z,15.67
2019-04-06T08:48:34.064Z,16.00
2019-04-06T08:51:03.663Z,16.29
2019-04-06T08:53:34.306Z,16.81
2019-04-06T08:56:05.097Z,17.58
2019-04-06T08:58:36.830Z,18.73
2019-04-06T09:01:06.246Z,19.67
2019-04-06T09:03:35.675Z,19.99
2019-04-06T09:06:05.330Z,19.13
2019-04-06T09:08:34.733Z,19.18
2019-04-06T09:11:04.125Z,18.71
2019-04-06T09:13:34.047Z,18.44
2019-04-06T09:16:03.980Z,17.76
2019-04-06T09:18:33.860Z,17.48
2019-04-06T09:21:03.361Z,17.57
2019-04-06T09:23:32.764Z,18.15
2019-04-06T09:26:02.380Z,19.65
2019-04-06T09:28:31.936Z,20.92
2019-04-06T09:31:01.355Z,21.41
2019-04-06T09:33:30.794Z,21.51
2019-04-06T09:36:02.294Z,21.17
2019-04-06T09:38:31.489Z,21.56
2019-04-06T09:41:02.803Z,21.83
2019-04-06T09:43:32.706Z,20.95
2019-04-06T09:46:27.183Z,20.73
2019-04-06T09:49:18.526Z,20.62
2019-04-06T09:52:15.675Z,20.82
2019-04-06T09:55:05.142Z,20.66
2019-04-06T09:57:52.186Z,20.57
2019-04-06T10:00:39.767Z,20.49
2019-04-06T10:03:28.088Z,20.78
2019-04-06T10:06:25.677Z,20.78
2019-04-06T10:09:04.161Z,21.03
2019-04-06T10:12:03.411Z,20.81
2019-04-06T10:14:53.997Z,20.73
2019-04-06T10:17:58.592Z,20.67
2019-04-06T10:21:06.527Z,20.85
2019-04-06T10:23:54.881Z,20.85
2019-04-06T10:26:34.540Z,21.00
2019-04-06T10:29:22.922Z,21.14
2019-04-06T10:32:03.564Z,21.17
2019-04-06T10:34:43.201Z,21.06
2019-04-06T10:37:31.634Z,20.89
2019-04-06T10:40:25.834Z,20.76
2019-04-06T10:43:29.760Z,20.95
2019-04-06T10:46:17.049Z,20.89
2019-04-06T10:48:55.312Z,21.02
2019-04-06T10:51:34.966Z,21.16
2019-04-06T10:54:14.687Z,20.99
2019-04-06T10:56:55.738Z,20.94
2019-04-06T11:00:03.600Z,20.56
2019-04-06T11:03:04.049Z,20.42
2019-04-06T11:05:40.876Z,20.65
2019-04-06T11:08:19.565Z,20.62
2019-04-06T11:10:57.931Z,20.52
2019-04-06T11:13:47.975Z,20.43
2019-04-06T11:16:48.199Z,20.38
2019-04-06T11:19:25.979Z,20.28
2019-04-06T11:22:08.081Z,20.57
2019-04-06T11:24:58.555Z,20.86
2019-04-06T11:27:55.564Z,20.78
2019-04-06T11:30:47.086Z,20.64
2019-04-06T11:33:25.788Z,20.69
2019-04-06T11:36:14.145Z,20.82
2019-04-06T11:39:10.038Z,20.80
2019-04-06T11:41:57.326Z,20.87
2019-04-06T11:44:46.250Z,21.02
2019-04-06T11:47:34.972Z,21.03
2019-04-06T11:50:21.898Z,21.09
2019-04-06T11:53:08.096Z,21.07
2019-04-06T11:55:47.083Z,20.99
2019-04-06T11:58:25.186Z,21.12
2019-04-06T12:01:12.434Z,21.06
2019-04-06T12:03:59.515Z,20.93
2019-04-06T12:07:00.974Z,20.85
2019-04-06T12:09:50.546Z,20.88
2019-04-06T12:12:37.686Z,20.96
2019-04-06T12:15:32.516Z,20.97
2019-04-06T12:18:29.956Z,21.10
2019-04-06T12:21:18.614Z,21.05
2019-04-06T12:24:07.071Z,21.06
2019-04-06T12:26:43.633Z,21.06
2019-04-06T12:29:34.475Z,21.06
2019-04-06T12:32:25.789Z,21.08
2019-04-06T12:35:04.172Z,21.07
2019-04-06T12:37:42.688Z,21.05
2019-04-06T12:40:27.866Z,21.16
2019-04-06T12:43:21.731Z,21.17
2019-04-06T12:46:16.073Z,21.19
2019-04-06T12:48:52.731Z,21.20
2019-04-06T12:51:54.047Z,21.15
2019-04-06T12:54:36.747Z,21.27
2019-04-06T12:57:15.801Z,21.31
2019-04-06T13:00:10.720Z,21.22
2019-04-06T13:02:57.901Z,21.37
2019-04-06T13:06:05.326Z,21.41
2019-04-06T13:08:51.471Z,21.44
2019-04-06T13:11:42.773Z,21.58
2019-04-06T13:14:40.141Z,21.65
2019-04-06T13:17:15.563Z,21.67
2019-04-06T13:20:03.429Z,21.62
2019-04-06T13:22:56.017Z,21.74
2019-04-06T13:25:42.396Z,21.69
2019-04-06T13:28:48.924Z,21.88
2019-04-06T13:31:28.030Z,21.95
2019-04-06T13:34:15.171Z,21.94
2019-04-06T13:37:13.211Z,21.87
2019-04-06T13:40:08.820Z,21.83
2019-04-06T13:43:00.640Z,21.87
2019-04-06T13:46:11.224Z,21.79
2019-04-06T13:48:59.016Z,21.89
2019-04-06T13:51:48.415Z,21.85
2019-04-06T13:54:36.980Z,21.94
2019-04-06T13:57:28.210Z,22.03
2019-04-06T14:00:20.007Z,22.14
2019-04-06T14:03:20.608Z,22.04
2019-04-06T14:06:07.673Z,22.00
2019-04-06T14:09:05.242Z,22.05
2019-04-06T14:11:51.003Z,22.11
2019-04-06T14:14:49.094Z,22.13
2019-04-06T14:17:56.034Z,22.21
2019-04-06T14:20:40.398Z,22.31
2019-04-06T14:23:31.896Z,22.31
2019-04-06T14:26:20.153Z,22.33
2019-04-06T14:28:56.274Z,22.17
2019-04-06T14:31:46.977Z,22.36
2019-04-06T14:34:47.229Z,22.30
2019-04-06T14:37:34.754Z,22.42
2019-04-06T14:40:41.802Z,22.47
2019-04-06T14:43:31.184Z,22.61
2019-04-06T14:46:17.918Z,22.41
2019-04-06T14:49:27.905Z,22.29
2019-04-06T14:52:07.961Z,22.24
2019-04-06T14:55:08.900Z,22.22
2019-04-06T14:58:03.710Z,22.29
2019-04-06T15:00:44.712Z,22.42
2019-04-06T15:03:35.913Z,22.52
2019-04-06T15:06:43.170Z,22.39
2019-04-06T15:09:28.538Z,22.33
2019-04-06T15:12:07.085Z,22.28
2019-04-06T15:15:07.789Z,22.28
2019-04-06T15:17:50.112Z,22.14
2019-04-06T15:20:37.338Z,22.18
2019-04-06T15:23:23.634Z,22.28
2019-04-06T15:26:21.190Z,22.03
2019-04-06T15:29:12.892Z,21.88
2019-04-06T15:32:01.178Z,21.84
2019-04-06T15:34:52.724Z,21.79
2019-04-06T15:37:39.985Z,21.66
2019-04-06T15:40:28.803Z,21.69
2019-04-06T15:43:14.851Z,21.71
2019-04-06T15:46:18.785Z,21.68
2019-04-06T15:49:22.059Z,21.67
2019-04-06T15:52:14.250Z,21.71
2019-04-06T15:55:17.852Z,21.74
2019-04-06T15:57:58.165Z,21.86
2019-04-06T16:00:45.353Z,22.03
2019-04-06T16:03:25.797Z,22.14
2019-04-06T16:06:09.781Z,22.30
2019-04-06T16:09:04.685Z,22.21
2019-04-06T16:12:02.521Z,22.03
2019-04-06T16:14:51.279Z,21.99
2019-04-06T16:17:31.207Z,21.83
2019-04-06T16:20:18.594Z,21.67
2019-04-06T16:23:01.559Z,21.64
2019-04-06T16:25:37.500Z,21.43
2019-04-06T16:28:23.092Z,21.27
2019-04-06T16:31:21.019Z,21.20
2019-04-06T16:34:01.415Z,21.17
2019-04-06T16:36:55.647Z,21.07
2019-04-06T16:39:42.880Z,20.89
2019-04-06T16:42:38.217Z,20.87
2019-04-06T16:45:18.064Z,20.77
2019-04-06T16:48:05.862Z,20.68
2019-04-06T16:50:40.925Z,20.58
2019-04-06T16:53:32.865Z,20.53
2019-04-06T16:56:08.861Z,20.51
2019-04-06T16:58:59.206Z,20.50
2019-04-06T17:01:36.373Z,20.38
2019-04-06T17:04:23.756Z,20.38
2019-04-06T17:07:12.056Z,20.36
2019-04-06T17:10:00.514Z,20.31
2019-04-06T17:12:58.121Z,20.26
2019-04-06T17:15:46.786Z,20.22
2019-04-06T17:18:35.148Z,20.13
2019-04-06T17:21:13.748Z,20.00
2019-04-06T17:24:11.300Z,20.03
2019-04-06T17:26:59.727Z,20.03
2019-04-06T17:29:45.988Z,19.98
2019-04-06T17:32:41.519Z,19.85
2019-04-06T17:35:25.588Z,19.71
2019-04-06T17:38:29.430Z,19.60
2019-04-06T17:41:05.266Z,19.43
2019-04-06T17:44:02.872Z,19.38
2019-04-06T17:47:06.431Z,19.29
2019-04-06T17:49:47.388Z,19.23
2019-04-06T17:52:47.771Z,19.05
2019-04-06T17:55:39.378Z,18.88
2019-04-06T17:58:19.013Z,18.80
2019-04-06T18:01:15.365Z,18.69
2019-04-06T18:04:02.896Z,18.62
2019-04-06T18:07:07.455Z,18.54
2019-04-06T18:09:46.213Z,18.51
2019-04-06T18:12:29.317Z,18.40
2019-04-06T18:14:58.693Z,18.32
2019-04-06T18:17:28.225Z,18.25
2019-04-06T18:19:57.598Z,18.20
2019-04-06T18:22:26.993Z,18.15
2019-04-06T18:24:56.920Z,18.15
2019-04-06T18:27:26.436Z,18.06
2019-04-06T18:29:55.873Z,17.98
2019-04-06T18:32:57.819Z,17.85
2019-04-06T18:35:19.178Z,17.85
2019-04-06T18:37:57.665Z,17.79
2019-04-06T18:40:28.556Z,17.69
2019-04-06T18:42:58.014Z,17.61
2019-04-06T18:45:29.942Z,17.54
2019-04-06T18:47:59.377Z,17.49
2019-04-06T18:50:35.994Z,17.44
2019-04-06T18:53:00.277Z,17.36
2019-04-06T18:55:29.720Z,17.31
2019-04-06T18:58:08.672Z,17.23
2019-04-06T19:00:30.944Z,17.18
2019-04-06T19:03:10.572Z,17.04
2019-04-06T19:05:31.578Z,17.00
2019-04-06T19:08:44.592Z,16.90
2019-04-06T19:14:12.382Z,16.70
2019-04-06T19:16:42.150Z,16.66
2019-04-06T19:19:11.671Z,16.60
2019-04-06T19:21:41.113Z,16.51
2019-04-06T19:24:10.595Z,16.46
2019-04-06T19:26:40.028Z,16.42
2019-04-06T19:29:09.539Z,16.39
2019-04-06T19:31:38.934Z,16.27
2019-04-06T19:34:08.374Z,16.27
2019-04-06T19:36:38.380Z,16.20
2019-04-06T19:39:13.943Z,16.15
2019-04-06T19:41:43.343Z,16.11
2019-04-06T19:44:13.374Z,16.04
2019-04-06T19:46:45.949Z,16.03
2019-04-06T19:49:16.087Z,15.98
2019-04-06T19:51:46.575Z,15.87
2019-04-06T19:54:16.481Z,15.67
2019-04-06T19:56:46.368Z,15.77
2019-04-06T20:01:57.595Z,15.74
2019-04-06T20:04:27.142Z,15.70
2019-04-06T20:06:56.965Z,15.65
2019-04-06T20:09:29.141Z,15.66
2019-04-06T20:12:06.100Z,15.65
2019-04-06T20:14:30.067Z,15.60
2019-04-06T20:16:59.773Z,15.54
2019-04-06T20:19:29.544Z,15.54
2019-04-06T20:21:59.522Z,15.52
2019-04-06T20:24:29.958Z,15.54
2019-04-06T20:26:59.583Z,15.49
2019-04-06T20:29:28.974Z,15.46
2019-04-06T20:31:58.744Z,15.40
2019-04-06T20:34:28.466Z,15.39
2019-04-06T20:36:58.020Z,15.34
2019-04-06T20:39:28.422Z,15.24
2019-04-06T20:41:57.953Z,15.23
2019-04-06T20:44:27.806Z,15.18
2019-04-06T20:46:57.465Z,15.09
2019-04-06T20:49:27.386Z,15.02
2019-04-06T20:51:58.790Z,15.02
2019-04-06T20:54:28.137Z,15.03
2019-04-06T20:56:58.937Z,14.87
2019-04-06T20:59:28.601Z,14.78
2019-04-06T21:02:01.508Z,14.74
2019-04-06T21:04:30.921Z,14.76
2019-04-06T21:07:00.340Z,14.69
2019-04-06T21:09:32.354Z,14.58
2019-04-06T21:12:06.878Z,14.49
2019-04-06T21:14:36.258Z,14.43
2019-04-06T21:17:06.101Z,14.36
2019-04-06T21:19:36.112Z,14.37
2019-04-06T21:22:05.792Z,14.33
2019-04-06T21:24:35.238Z,14.29
2019-04-06T21:27:04.633Z,14.22
2019-04-06T21:29:34.577Z,14.11
2019-04-06T21:32:04.277Z,14.11
2019-04-06T21:34:33.988Z,14.10
2019-04-06T21:37:06.956Z,14.08
2019-04-06T21:39:36.986Z,14.04
2019-04-06T21:42:10.689Z,14.06
2019-04-06T21:44:40.433Z,13.97
2019-04-06T21:47:09.996Z,13.96
2019-04-06T21:49:39.872Z,13.94
2019-04-06T21:52:09.379Z,13.97
2019-04-06T21:54:39.740Z,13.98
2019-04-06T21:57:09.409Z,13.93
2019-04-06T21:59:40.483Z,13.90
2019-04-06T22:02:10.374Z,13.75
2019-04-06T22:04:39.775Z,13.77
2019-04-06T22:07:09.786Z,13.71
2019-04-06T22:09:39.987Z,13.73
2019-04-06T22:12:09.946Z,13.69
2019-04-06T22:14:39.656Z,13.72
2019-04-06T22:17:10.835Z,13.57
2019-04-06T22:19:40.951Z,13.60
2019-04-06T22:22:11.063Z,13.47
2019-04-06T22:24:40.762Z,13.51
2019-04-06T22:27:10.250Z,13.48
2019-04-06T22:29:40.671Z,13.45
2019-04-06T22:32:10.477Z,13.39
2019-04-06T22:34:41.538Z,13.46
2019-04-06T22:37:11.106Z,13.46
2019-04-06T22:39:40.985Z,13.38
2019-04-06T22:42:11.150Z,13.30
2019-04-06T22:44:40.873Z,13.27
2019-04-06T22:47:10.378Z,13.20
2019-04-06T22:49:39.818Z,13.25
2019-04-06T22:52:09.295Z,13.25
2019-04-06T22:54:39.152Z,13.21
2019-04-06T22:57:10.490Z,13.15
2019-04-06T22:59:41.382Z,13.12
2019-04-06T23:02:11.954Z,13.15
2019-04-06T23:04:58.492Z,13.04
2019-04-06T23:07:28.087Z,13.03
2019-04-06T23:09:57.709Z,13.08
2019-04-06T23:12:27.632Z,13.01
2019-04-06T23:14:57.279Z,12.98
2019-04-06T23:17:27.298Z,12.95
2019-04-06T23:19:56.891Z,12.97
2019-04-06T23:22:28.581Z,12.93
2019-04-06T23:24:58.092Z,12.94
2019-04-06T23:27:27.475Z,12.90
2019-04-06T23:29:57.004Z,12.93
2019-04-06T23:32:26.446Z,12.91
2019-04-06T23:34:59.885Z,12.83
2019-04-06T23:37:27.146Z,12.69
2019-04-06T23:39:57.513Z,12.71
2019-04-06T23:42:27.131Z,12.74
2019-04-06T23:44:56.947Z,12.64
2019-04-06T23:47:27.345Z,12.64
2019-04-06T23:49:57.445Z,12.58
2019-04-06T23:52:27.466Z,12.53
2019-04-06T23:54:57.550Z,12.54
2019-04-06T23:57:26.993Z,12.46
2019-04-06T23:59:56.529Z,12.35
